Time;durP1;ratioP1;P1;durP2;ratioP2;P2;SDS_P1;SDS_P2;PMS_P1;PMS_P2;Temp;Humidity;BMP_temperature;BMP_pressure;BME280_temperature;BME280_humidity;BME280_pressure;Samples;Min_cycle;Max_cycle;Signal;HPM_P1;HPM_P2
2023/04/07 00:01:58;;;;;;;;;;;;;;;5.60;100.00;100899.63;4908548;29;19931;-91
2023/04/07 00:04:24;;;;;;;;;;;;;;;5.52;100.00;100894.06;4895507;29;20364;-91
2023/04/07 00:06:50;;;;;;;;;;;;;;;5.52;100.00;100896.66;4875490;29;20514;-91
2023/04/07 00:09:16;;;;;;;;;;;;;;;5.55;100.00;100899.09;4892172;29;19919;-91
2023/04/07 00:11:41;;;;;;;;;;;;;;;5.58;100.00;100906.75;4904765;29;19915;-91
2023/04/07 00:14:07;;;;;;;;;;;;;;;5.50;100.00;100896.78;4901688;29;20296;-90
2023/04/07 00:16:33;;;;;;;;;;;;;;;5.46;100.00;100895.31;4902818;29;19973;-91
2023/04/07 00:18:59;;;;;;;;;;;;;;;5.52;100.00;100894.91;4884325;29;20427;-91
2023/04/07 00:21:25;;;;;;;;;;;;;;;5.51;100.00;100887.94;4895051;29;19919;-91
2023/04/07 00:23:51;;;;;;;;;;;;;;;5.45;100.00;100899.69;4884345;29;19916;-90
2023/04/07 00:26:17;;;;;;;;;;;;;;;5.43;100.00;100892.88;4898754;29;20041;-90
2023/04/07 00:28:43;;;;;;;;;;;;;;;5.34;100.00;100897.78;4902320;29;19915;-91
2023/04/07 00:31:09;;;;;;;;;;;;;;;5.30;100.00;100898.88;4897296;29;19915;-91
2023/04/07 00:33:35;;;;;;;;;;;;;;;5.32;100.00;100897.00;4871063;29;20255;-91
2023/04/07 00:36:00;;;;;;;;;;;;;;;5.30;100.00;100892.81;4906877;29;19951;-91
2023/04/07 00:38:26;;;;;;;;;;;;;;;5.31;100.00;100892.72;4888963;29;19915;-90
2023/04/07 00:40:59;;;;;;;;;;;;;;;5.30;100.00;100898.88;4901310;29;19927;-91
2023/04/07 00:43:25;;;;;;;;;;;;;;;5.23;100.00;100895.00;4901991;29;20360;-90
2023/04/07 00:45:52;;;;;;;;;;;;;;;5.22;100.00;100888.91;4900738;29;19915;-91
2023/04/07 00:48:18;;;;;;;;;;;;;;;5.26;100.00;100894.78;4878359;29;20412;-91
2023/04/07 00:50:44;;;;;;;;;;;;;;;5.26;100.00;100897.41;4907955;29;19916;-91
2023/04/07 00:53:10;;;;;;;;;;;;;;;5.26;100.00;100893.94;4905244;29;19922;-91
2023/04/07 00:55:36;;;;;;;;;;;;;;;5.22;100.00;100899.38;4898347;29;19922;-90
2023/04/07 00:58:03;;;;;;;;;;;;;;;5.18;100.00;100899.69;4920609;29;19914;-90
2023/04/07 01:00:31;;;;;;;;;;;;;;;5.16;100.00;100891.91;4890465;29;19961;-91
2023/04/07 01:02:58;;;;;;;;;;;;;;;5.14;100.00;100892.97;4920407;29;19947;-90
2023/04/07 01:05:33;;;;;;;;;;;;;;;5.16;100.00;100894.53;4892726;29;20368;-90
2023/04/07 01:08:19;;;;;;;;;;;;;;;5.17;100.00;100893.63;4905826;29;19946;-91
2023/04/07 01:10:50;;;;;;;;;;;;;;;5.21;100.00;100878.50;4905502;29;20267;-91
2023/04/07 01:13:29;;;;;;;;;;;;;;;5.24;100.00;100890.59;4911464;29;19914;-91
2023/04/07 01:16:10;;;;;;;;;;;;;;;5.27;100.00;100888.59;4898986;29;19922;-91
2023/04/07 01:18:43;;;;;;;;;;;;;;;5.28;100.00;100887.69;4889811;29;19932;-91
2023/04/07 01:21:12;;;;;;;;;;;;;;;5.32;100.00;100889.16;4908573;29;19918;-90
2023/04/07 01:24:00;;;;;;;;;;;;;;;5.35;100.00;100888.13;4882291;29;20092;-90
2023/04/07 01:26:29;;;;;;;;;;;;;;;5.31;100.00;100890.09;4920657;29;19915;-91
2023/04/07 01:29:14;;;;;;;;;;;;;;;5.31;100.00;100887.47;4881729;29;20361;-90
2023/04/07 01:31:40;;;;;;;;;;;;;;;5.28;100.00;100886.84;4918062;29;20347;-90
2023/04/07 01:34:09;;;;;;;;;;;;;;;5.27;100.00;100880.75;4905625;29;19970;-90
2023/04/07 01:36:34;;;;;;;;;;;;;;;5.26;100.00;100876.44;4902181;29;20340;-90
2023/04/07 01:39:00;;;;;;;;;;;;;;;5.18;100.00;100873.47;4919656;29;19954;-90
2023/04/07 01:41:26;;;;;;;;;;;;;;;5.08;100.00;100874.06;4906720;29;19919;-91
2023/04/07 01:43:53;;;;;;;;;;;;;;;4.94;100.00;100871.47;4924830;29;19954;-90
2023/04/07 01:46:19;;;;;;;;;;;;;;;4.77;100.00;100880.41;4902315;29;19941;-91
2023/04/07 01:48:46;;;;;;;;;;;;;;;4.71;100.00;100879.84;4919479;29;19923;-91
2023/04/07 01:51:16;;;;;;;;;;;;;;;4.70;100.00;100878.16;4934321;29;19919;-91
2023/04/07 01:53:42;;;;;;;;;;;;;;;4.69;100.00;100875.63;4888116;29;19938;-89
2023/04/07 01:56:08;;;;;;;;;;;;;;;4.64;100.00;100873.31;4918745;29;19919;-89
2023/04/07 01:58:36;;;;;;;;;;;;;;;4.64;100.00;100877.69;4884665;29;20013;-90
2023/04/07 02:01:03;;;;;;;;;;;;;;;4.57;100.00;100878.06;4932528;29;19922;-91
2023/04/07 02:03:32;;;;;;;;;;;;;;;4.49;100.00;100882.09;4883530;29;19927;-92
2023/04/07 02:06:08;;;;;;;;;;;;;;;4.43;100.00;100883.31;4901383;29;19941;-91
2023/04/07 02:08:35;;;;;;;;;;;;;;;4.44;100.00;100871.91;4933694;29;19926;-91
2023/04/07 02:11:02;;;;;;;;;;;;;;;4.46;100.00;100876.13;4914680;29;19914;-89
2023/04/07 02:13:31;;;;;;;;;;;;;;;4.51;100.00;100869.78;4884403;29;20407;-91
2023/04/07 02:15:58;;;;;;;;;;;;;;;4.55;100.00;100876.50;4916914;29;19997;-90
2023/04/07 02:18:25;;;;;;;;;;;;;;;4.55;100.00;100877.34;4903760;29;19914;-90
2023/04/07 02:20:51;;;;;;;;;;;;;;;4.57;100.00;100877.25;4885481;29;19927;-91
2023/04/07 02:23:17;;;;;;;;;;;;;;;4.54;100.00;100870.41;4884372;29;19919;-91
2023/04/07 02:25:43;;;;;;;;;;;;;;;4.53;100.00;100871.34;4916165;29;19922;-91
2023/04/07 02:28:09;;;;;;;;;;;;;;;4.59;100.00;100872.75;4887222;29;19918;-90
2023/04/07 02:30:35;;;;;;;;;;;;;;;4.61;100.00;100870.03;4919795;29;19914;-90
2023/04/07 02:33:00;;;;;;;;;;;;;;;4.64;100.00;100869.84;4905891;29;20368;-90
2023/04/07 02:35:26;;;;;;;;;;;;;;;4.65;100.00;100871.53;4919884;29;19915;-91
2023/04/07 02:37:52;;;;;;;;;;;;;;;4.63;100.00;100871.63;4904688;29;20013;-90
2023/04/07 02:40:18;;;;;;;;;;;;;;;4.63;100.00;100871.63;4893774;29;19915;-90
2023/04/07 02:42:45;;;;;;;;;;;;;;;4.64;100.00;100867.22;4887905;29;19923;-91
2023/04/07 02:45:11;;;;;;;;;;;;;;;4.61;100.00;100870.03;4920986;29;19966;-90
2023/04/07 02:47:37;;;;;;;;;;;;;;;4.62;100.00;100863.88;4919781;29;19927;-91
2023/04/07 02:50:03;;;;;;;;;;;;;;;4.53;100.00;100870.50;4916442;29;19923;-91
2023/04/07 02:52:33;;;;;;;;;;;;;;;4.46;100.00;100876.13;4877816;29;19919;-90
2023/04/07 02:54:59;;;;;;;;;;;;;;;4.46;100.00;100865.66;4885944;29;19931;-91
2023/04/07 02:57:26;;;;;;;;;;;;;;;4.34;100.00;100871.63;4870444;29;19926;-90
2023/04/07 02:59:57;;;;;;;;;;;;;;;4.17;100.00;100870.03;4865489;29;19923;-91
2023/04/07 03:02:27;;;;;;;;;;;;;;;4.05;100.00;100864.59;4907151;29;19919;-90
2023/04/07 03:04:52;;;;;;;;;;;;;;;4.00;100.00;100863.19;4915950;29;19922;-91
2023/04/07 03:07:20;;;;;;;;;;;;;;;3.99;100.00;100862.34;4899814;29;19915;-91
2023/04/07 03:09:48;;;;;;;;;;;;;;;4.01;100.00;100854.41;4870648;29;19927;-91
2023/04/07 03:12:16;;;;;;;;;;;;;;;3.97;100.00;100856.34;4871632;29;19923;-91
2023/04/07 03:14:42;;;;;;;;;;;;;;;3.96;100.00;100863.38;4906019;29;19947;-91
2023/04/07 03:17:07;;;;;;;;;;;;;;;4.01;100.00;100855.25;4888369;29;19958;-91
2023/04/07 03:19:34;;;;;;;;;;;;;;;4.03;100.00;100858.59;4887259;29;19927;-91
2023/04/07 03:22:00;;;;;;;;;;;;;;;4.03;100.00;100858.59;4886704;29;19998;-91
2023/04/07 03:24:26;;;;;;;;;;;;;;;4.02;100.00;100862.16;4868108;29;19919;-92
2023/04/07 03:26:52;;;;;;;;;;;;;;;4.05;100.00;100861.97;4871269;29;19919;-91
2023/04/07 03:29:24;;;;;;;;;;;;;;;4.11;100.00;100868.59;4908192;29;19915;-91
2023/04/07 03:31:50;;;;;;;;;;;;;;;4.16;100.00;100868.34;4894963;29;19937;-91
2023/04/07 03:34:20;;;;;;;;;;;;;;;4.21;100.00;100869.75;4873945;29;19915;-91
2023/04/07 03:36:46;;;;;;;;;;;;;;;4.18;100.00;100869.94;4869046;29;20377;-90
2023/04/07 03:39:12;;;;;;;;;;;;;;;4.17;100.00;100870.03;4881675;29;19923;-91
2023/04/07 03:41:37;;;;;;;;;;;;;;;4.19;100.00;100873.38;4889307;29;19919;-91
2023/04/07 03:44:04;;;;;;;;;;;;;;;4.20;100.00;100865.44;4885750;29;19915;-90
2023/04/07 03:46:31;;;;;;;;;;;;;;;4.19;100.00;100869.00;4909130;29;19965;-92
2023/04/07 03:48:57;;;;;;;;;;;;;;;4.16;100.00;100863.94;4885674;29;20472;-90
2023/04/07 03:51:23;;;;;;;;;;;;;;;4.16;100.00;100857.88;4882912;29;19982;-89
2023/04/07 03:53:53;;;;;;;;;;;;;;;4.17;100.00;100864.81;4917677;29;19914;-91
2023/04/07 03:56:28;;;;;;;;;;;;;;;4.20;100.00;100867.22;4892868;29;19966;-90
2023/04/07 03:58:56;;;;;;;;;;;;;;;4.16;100.00;100866.56;4922227;29;19973;-91
2023/04/07 04:01:27;;;;;;;;;;;;;;;4.11;100.00;100867.78;4911816;29;19969;-91
2023/04/07 04:03:55;;;;;;;;;;;;;;;4.04;100.00;100872.53;4902720;29;19943;-91
2023/04/07 04:06:26;;;;;;;;;;;;;;;4.00;100.00;100860.59;4891006;29;20254;-91
2023/04/07 04:08:56;;;;;;;;;;;;;;;3.99;100.00;100872.81;4875038;29;19916;-91
2023/04/07 04:11:24;;;;;;;;;;;;;;;3.97;100.00;100870.28;4921865;29;19922;-92
2023/04/07 04:13:56;;;;;;;;;;;;;;;3.96;100.00;100868.63;4898222;29;19916;-92
2023/04/07 04:16:22;;;;;;;;;;;;;;;3.98;100.00;100865.91;4903807;29;19922;-93
2023/04/07 04:18:50;;;;;;;;;;;;;;;3.95;100.00;100858.25;4894500;29;19994;-92
2023/04/07 04:21:16;;;;;;;;;;;;;;;3.96;100.00;100857.28;4908151;29;20066;-92
2023/04/07 04:23:43;;;;;;;;;;;;;;;3.95;100.00;100856.44;4890389;29;19914;-92
2023/04/07 04:26:08;;;;;;;;;;;;;;;3.99;100.00;100858.88;4902344;29;19926;-92
2023/04/07 04:28:35;;;;;;;;;;;;;;;4.00;100.00;100857.97;4908962;29;19915;-91
2023/04/07 04:31:03;;;;;;;;;;;;;;;4.04;100.00;100852.47;4887353;29;19915;-91
2023/04/07 04:33:33;;;;;;;;;;;;;;;4.02;100.00;100850.84;4927833;29;20263;-92
2023/04/07 04:35:58;;;;;;;;;;;;;;;3.99;100.00;100851.03;4889815;29;19918;-90
2023/04/07 04:38:25;;;;;;;;;;;;;;;3.96;100.00;100850.31;4922570;29;19914;-91
2023/04/07 04:41:04;;;;;;;;;;;;;;;3.93;100.00;100849.63;4897201;29;19914;-90
2023/04/07 04:43:31;;;;;;;;;;;;;;;3.84;100.00;100846.63;4902295;29;19915;-91
2023/04/07 04:45:57;;;;;;;;;;;;;;;3.77;100.00;100847.94;4922216;29;20411;-90
2023/04/07 04:48:26;;;;;;;;;;;;;;;3.72;100.00;100847.34;4885380;29;19915;-92
2023/04/07 04:50:52;;;;;;;;;;;;;;;3.72;100.00;100848.19;4889877;29;19919;-91
2023/04/07 04:53:19;;;;;;;;;;;;;;;3.73;100.00;100846.41;4912809;29;19915;-91
2023/04/07 04:55:53;;;;;;;;;;;;;;;3.71;100.00;100851.72;4900940;29;19923;-90
2023/04/07 04:58:34;;;;;;;;;;;;;;;3.69;100.00;100848.38;4889739;29;19923;-90
2023/04/07 05:01:00;;;;;;;;;;;;;;;3.64;100.00;100847.78;4885876;29;20363;-91
2023/04/07 05:03:34;;;;;;;;;;;;;;;3.65;100.00;100844.25;4890933;29;19923;-91
2023/04/07 05:06:03;;;;;;;;;;;;;;;3.63;100.00;100840.88;4888789;29;20005;-91
2023/04/07 05:08:30;;;;;;;;;;;;;;;3.63;100.00;100832.19;4887826;29;19925;-91
2023/04/07 05:10:56;;;;;;;;;;;;;;;3.61;100.00;100840.13;4882804;29;19919;-92
2023/04/07 05:13:25;;;;;;;;;;;;;;;3.62;100.00;100830.50;4916804;29;20014;-91
2023/04/07 05:15:51;;;;;;;;;;;;;;;3.63;100.00;100837.44;4886765;29;20372;-91
2023/04/07 05:18:18;;;;;;;;;;;;;;;3.58;100.00;100833.28;4901658;29;19919;-92
2023/04/07 05:20:44;;;;;;;;;;;;;;;3.51;100.00;100826.75;4889142;29;19945;-91
2023/04/07 05:23:11;;;;;;;;;;;;;;;3.50;100.00;100825.06;4897014;29;19918;-91
2023/04/07 05:25:38;;;;;;;;;;;;;;;3.49;100.00;100828.59;4914309;29;20411;-91
2023/04/07 05:28:05;;;;;;;;;;;;;;;3.46;100.00;100826.16;4887363;29;19966;-91
2023/04/07 05:30:31;;;;;;;;;;;;;;;3.45;100.00;100825.34;4891053;29;20283;-92
2023/04/07 05:32:57;;;;;;;;;;;;;;;3.45;100.00;100814.88;4901221;29;20387;-91
2023/04/07 05:35:40;;;;;;;;;;;;;;;3.46;100.00;100826.16;4888241;29;19922;-92
2023/04/07 05:38:06;;;;;;;;;;;;;;;3.49;100.00;100823.38;4936949;29;19922;-92
2023/04/07 05:40:32;;;;;;;;;;;;;;;3.51;100.00;100820.66;4905931;29;19914;-91
2023/04/07 05:43:01;;;;;;;;;;;;;;;3.46;100.00;100816.56;4918903;29;19931;-92
2023/04/07 05:45:29;;;;;;;;;;;;;;;3.42;100.00;100811.59;4890960;29;19926;-91
2023/04/07 05:47:55;;;;;;;;;;;;;;;3.33;100.00;100819.03;4926753;29;19919;-91
2023/04/07 05:50:27;;;;;;;;;;;;;;;3.22;100.00;100819.66;4890347;29;19915;-91
2023/04/07 05:52:53;;;;;;;;;;;;;;;3.06;100.00;100817.06;4923440;29;19919;-91
2023/04/07 05:55:25;;;;;;;;;;;;;;;2.97;100.00;100818.44;4943828;28;19969;-92
2023/04/07 05:57:51;;;;;;;;;;;;;;;3.01;100.00;100818.25;4918395;29;19914;-91
2023/04/07 06:00:20;;;;;;;;;;;;;;;3.03;100.00;100819.84;4905539;29;20379;-91
2023/04/07 06:02:55;;;;;;;;;;;;;;;3.05;100.00;100819.75;4888234;29;19919;-92
2023/04/07 06:05:21;;;;;;;;;;;;;;;3.00;100.00;100820.00;4906396;29;19922;-91
2023/04/07 06:07:51;;;;;;;;;;;;;;;3.00;100.00;100820.00;4922787;29;19952;-91
2023/04/07 06:10:17;;;;;;;;;;;;;;;3.00;100.00;100822.63;4921106;29;19915;-91
2023/04/07 06:12:44;;;;;;;;;;;;;;;2.97;100.00;100823.66;4899013;29;20525;-92
2023/04/07 06:15:10;;;;;;;;;;;;;;;2.96;100.00;100829.78;4906193;29;19922;-91
2023/04/07 06:17:36;;;;;;;;;;;;;;;3.03;100.00;100829.44;4936430;29;20390;-91
2023/04/07 06:20:02;;;;;;;;;;;;;;;3.13;100.00;100833.22;4918679;29;19950;-91
2023/04/07 06:22:31;;;;;;;;;;;;;;;3.25;100.00;100826.47;4921451;29;19926;-91
2023/04/07 06:24:58;;;;;;;;;;;;;;;3.41;100.00;100825.59;4908165;29;21150;-92
2023/04/07 06:27:24;;;;;;;;;;;;;;;3.59;100.00;100831.53;4914541;29;19919;-92
2023/04/07 06:29:50;;;;;;;;;;;;;;;3.82;100.00;100827.56;4918689;29;19962;-91
2023/04/07 06:32:16;;;;;;;;;;;;;;;4.03;100.00;100831.63;4916864;29;19919;-91
2023/04/07 06:34:41;;;;;;;;;;;;;;;4.24;100.00;100833.88;4890543;29;19929;-91
2023/04/07 06:37:07;;;;;;;;;;;;;;;4.34;100.00;100833.22;4924852;29;20415;-91
2023/04/07 06:39:33;;;;;;;;;;;;;;;4.40;100.00;100834.59;4903890;29;19961;-90
2023/04/07 06:42:00;;;;;;;;;;;;;;;4.46;100.00;100833.38;4921750;29;19922;-92
2023/04/07 06:44:26;;;;;;;;;;;;;;;4.50;100.00;100834.03;4917669;29;19922;-91
2023/04/07 06:46:52;;;;;;;;;;;;;;;4.53;100.00;100831.22;4908076;29;20411;-92
2023/04/07 06:49:18;;;;;;;;;;;;;;;4.65;100.00;100830.47;4921277;29;19949;-91
2023/04/07 06:51:44;;;;;;;;;;;;;;;4.76;100.00;100823.72;4918415;29;20013;-91
2023/04/07 06:54:13;;;;;;;;;;;;;;;4.87;100.00;100823.91;4910754;29;20455;-90
2023/04/07 06:56:40;;;;;;;;;;;;;;;4.97;100.00;100826.75;4907609;29;20124;-91
2023/04/07 06:59:05;;;;;;;;;;;;;;;5.06;100.00;100825.31;4902751;29;20335;-91
2023/04/07 07:01:32;;;;;;;;;;;;;;;5.14;100.00;100832.69;4911925;29;19923;-91
2023/04/07 07:03:59;;;;;;;;;;;;;;;5.24;100.00;100825.91;4906786;29;20141;-91
2023/04/07 07:06:25;;;;;;;;;;;;;;;5.49;100.00;100823.47;4903602;29;19930;-92
2023/04/07 07:08:51;;;;;;;;;;;;;;;5.59;100.00;100824.50;4899893;29;20079;-91
2023/04/07 07:11:17;;;;;;;;;;;;;;;5.59;100.00;100824.50;4915598;29;19974;-91
2023/04/07 07:13:43;;;;;;;;;;;;;;;5.73;100.00;100833.25;4882570;29;20155;-91
2023/04/07 07:16:11;;;;;;;;;;;;;;;5.93;100.00;100837.16;4892456;29;19934;-91
2023/04/07 07:18:37;;;;;;;;;;;;;;;6.07;100.00;100831.84;4896695;29;19919;-91
2023/04/07 07:21:03;;;;;;;;;;;;;;;6.26;100.00;100830.56;4890858;29;19933;-91
2023/04/07 07:23:28;;;;;;;;;;;;;;;6.49;100.00;100829.91;4889697;29;20422;-91
2023/04/07 07:25:54;;;;;;;;;;;;;;;6.65;100.00;100834.91;4919483;29;19970;-90
2023/04/07 07:28:20;;;;;;;;;;;;;;;6.77;100.00;100834.03;4901345;29;19970;-90
2023/04/07 07:30:46;;;;;;;;;;;;;;;6.88;100.00;100827.19;4878346;29;19918;-90
2023/04/07 07:33:12;;;;;;;;;;;;;;;6.94;100.00;100830.19;4881563;29;20010;-90
2023/04/07 07:35:39;;;;;;;;;;;;;;;6.95;100.00;100831.88;4912952;29;19958;-91
2023/04/07 07:38:05;;;;;;;;;;;;;;;7.03;100.00;100826.06;4894643;29;20025;-90
2023/04/07 07:40:31;;;;;;;;;;;;;;;7.21;100.00;100825.69;4905872;29;20014;-90
2023/04/07 07:42:56;;;;;;;;;;;;;;;7.30;100.00;100832.88;4919063;29;20355;-90
2023/04/07 07:45:22;;;;;;;;;;;;;;;7.43;100.00;100829.34;4912775;29;19957;-90
2023/04/07 07:47:48;;;;;;;;;;;;;;;7.52;100.00;100836.53;4916707;29;19982;-91
2023/04/07 07:50:14;;;;;;;;;;;;;;;7.54;100.00;100834.66;4918950;29;19922;-90
2023/04/07 07:52:40;;;;;;;;;;;;;;;7.56;100.00;100829.28;4864005;29;19937;-89
2023/04/07 07:55:06;;;;;;;;;;;;;;;7.55;100.00;100838.94;4899467;29;19927;-89
2023/04/07 07:57:32;;;;;;;;;;;;;;;7.44;100.00;100836.28;4908731;29;19927;-89
2023/04/07 07:59:57;;;;;;;;;;;;;;;7.37;100.00;100832.44;4893429;29;19915;-90
2023/04/07 08:02:29;;;;;;;;;;;;;;;7.35;100.00;100839.59;4890144;29;19918;-90
2023/04/07 08:04:55;;;;;;;;;;;;;;;7.25;100.00;100842.91;4905319;29;20016;-88
2023/04/07 08:07:21;;;;;;;;;;;;;;;7.30;100.00;100840.78;4889449;29;19943;-91
2023/04/07 08:09:47;;;;;;;;;;;;;;;7.32;100.00;100831.00;4910734;29;19970;-89
2023/04/07 08:12:12;;;;;;;;;;;;;;;7.39;100.00;100841.06;4902063;29;19919;-90
2023/04/07 08:14:38;;;;;;;;;;;;;;;7.51;100.00;100841.91;4871276;29;20026;-90
2023/04/07 08:17:04;;;;;;;;;;;;;;;7.60;100.00;100843.03;4886477;29;19915;-90
2023/04/07 08:19:30;;;;;;;;;;;;;;;7.75;100.00;100838.41;4885518;29;20009;-88
2023/04/07 08:21:55;;;;;;;;;;;;;;;7.94;100.00;100845.75;4883547;29;20374;-91
2023/04/07 08:24:21;;;;;;;;;;;;;;;8.03;100.00;100842.41;4899740;29;19939;-91
2023/04/07 08:26:47;;;;;;;;;;;;;;;8.19;100.00;100839.44;4884664;29;20352;-91
2023/04/07 08:29:12;;;;;;;;;;;;;;;8.36;100.00;100834.63;4885875;29;19919;-91
2023/04/07 08:31:38;;;;;;;;;;;;;;;8.47;100.00;100828.53;4885066;29;20025;-91
2023/04/07 08:34:04;;;;;;;;;;;;;;;8.54;100.00;100827.13;4885296;29;20057;-92
2023/04/07 08:36:30;;;;;;;;;;;;;;;8.73;100.00;100832.72;4886007;29;20275;-91
2023/04/07 08:38:56;;;;;;;;;;;;;;;8.92;100.00;100826.78;4876032;29;19915;-91
2023/04/07 08:41:44;;;;;;;;;;;;;;;9.01;100.00;100826.06;4900760;29;19998;-91
2023/04/07 08:44:10;;;;;;;;;;;;;;;9.15;100.00;100826.72;4866259;29;19970;-92
2023/04/07 08:46:40;;;;;;;;;;;;;;;9.29;100.00;100826.44;4931950;29;19915;-91
2023/04/07 08:53:04;;;;;;;;;;;;;;;9.60;100.00;100830.13;4895744;29;19970;-91
2023/04/07 09:04:33;;;;;;;;;;;;;;;9.78;100.00;100835.66;4882740;29;19919;-91
2023/04/07 09:14:38;;;;;;;;;;;;;;;9.91;100.00;100831.03;4921401;29;20002;-89
2023/04/07 09:28:22;;;;;;;;;;;;;;;10.17;100.00;100830.63;4904431;29;19915;-92
2023/04/07 09:35:55;;;;;;;;;;;;;;;10.45;100.00;100834.47;4857423;29;19922;-91
2023/04/07 10:02:32;;;;;;;;;;;;;;;10.92;100.00;100839.22;4958283;23;19970;-87
2023/04/07 10:04:58;;;;;;;;;;;;;;;10.97;100.00;100831.72;4924078;29;19947;-86
2023/04/07 10:07:24;;;;;;;;;;;;;;;11.09;100.00;100834.19;4949403;28;19934;-87
2023/04/07 10:09:50;;;;;;;;;;;;;;;11.13;100.00;100839.06;4951898;28;19982;-87
2023/04/07 10:12:17;;;;;;;;;;;;;;;11.16;100.00;100838.81;4932517;28;20337;-88
2023/04/07 10:14:45;;;;;;;;;;;;;;;11.24;100.00;100837.28;4915221;29;20319;-88
2023/04/07 10:17:17;;;;;;;;;;;;;;;11.25;100.00;100837.16;4926181;29;20430;-87
2023/04/07 10:19:44;;;;;;;;;;;;;;;11.29;100.00;100838.53;4918678;28;19918;-88
2023/04/07 10:22:10;;;;;;;;;;;;;;;11.32;100.00;100840.09;4921048;28;20013;-87
2023/04/07 10:24:42;;;;;;;;;;;;;;;11.39;100.00;100832.41;4935363;29;19926;-87
2023/04/07 10:27:10;;;;;;;;;;;;;;;11.42;100.00;100842.69;4902435;29;19930;-87
2023/04/07 10:29:38;;;;;;;;;;;;;;;11.56;100.00;100836.16;4931280;28;19958;-87
2023/04/07 10:32:04;;;;;;;;;;;;;;;11.61;100.00;100843.69;4932729;29;20196;-87
2023/04/07 10:35:02;;;;;;;;;;;;;;;11.70;100.00;100839.34;4913932;29;19919;-86
2023/04/07 10:37:28;;;;;;;;;;;;;;;11.60;100.00;100836.69;4883385;29;19941;-87
2023/04/07 10:40:12;;;;;;;;;;;;;;;11.52;100.00;100832.13;4960819;28;20757;-87
2023/04/07 10:42:38;;;;;;;;;;;;;;;11.50;100.00;100828.75;4925359;28;19982;-87
2023/04/07 10:45:08;;;;;;;;;;;;;;;11.61;100.00;100830.44;4908399;29;19990;-90
2023/04/07 10:47:35;;;;;;;;;;;;;;;11.75;100.00;100826.50;4925366;29;19919;-87
2023/04/07 10:50:10;;;;;;;;;;;;;;;11.89;100.00;100827.88;4938829;28;19919;-88
2023/04/07 10:52:36;;;;;;;;;;;;;;;11.97;100.00;100825.34;4942672;29;19919;-85
2023/04/07 10:55:34;;;;;;;;;;;;;;;12.04;100.00;100821.13;4895680;28;20395;-89
2023/04/07 10:58:13;;;;;;;;;;;;;;;12.12;100.00;100827.56;4917575;28;20306;-79
2023/04/07 11:00:38;;;;;;;;;;;;;;;12.20;100.00;100817.06;4946888;28;19925;-86
2023/04/07 11:03:14;;;;;;;;;;;;;;;12.20;100.00;100824.19;4902963;29;19931;-86
2023/04/07 11:05:39;;;;;;;;;;;;;;;12.19;100.00;100822.50;4964589;28;19922;-86
2023/04/07 11:08:06;;;;;;;;;;;;;;;12.28;100.00;100821.63;4943081;28;19982;-87
2023/04/07 11:10:35;;;;;;;;;;;;;;;12.28;100.00;100822.47;4914562;29;19918;-87
2023/04/07 11:13:02;;;;;;;;;;;;;;;12.32;100.00;100817.72;4954583;28;19923;-86
2023/04/07 11:15:28;;;;;;;;;;;;;;;12.38;100.00;100822.44;4948207;28;19933;-87
2023/04/07 11:18:07;;;;;;;;;;;;;;;12.48;100.00;100827.69;4966932;28;20576;-86
2023/04/07 11:20:42;;;;;;;;;;;;;;;12.59;100.00;100815.19;4931606;29;19943;-87
2023/04/07 11:23:08;;;;;;;;;;;;;;;12.62;100.00;100829.00;4928956;29;19926;-88
2023/04/07 11:25:34;;;;;;;;;;;;;;;12.60;100.00;100822.16;4951503;28;19922;-87
2023/04/07 11:28:02;;;;;;;;;;;;;;;12.64;100.00;100824.41;4950735;28;19974;-87
2023/04/07 11:30:28;;;;;;;;;;;;;;;12.59;100.00;100823.16;4947601;28;19961;-87
2023/04/07 11:32:55;;;;;;;;;;;;;;;12.66;100.00;100811.00;4910157;28;19949;-80
2023/04/07 11:35:21;;;;;;;;;;;;;;;12.67;100.00;100815.28;4932896;28;19926;-80
2023/04/07 11:37:47;;;;;;;;;;;;;;;12.68;100.00;100810.84;4947763;28;19922;-87
2023/04/07 11:40:30;;;;;;;;;;;;;;;12.68;100.00;100822.25;4947535;28;19967;-86
2023/04/07 11:42:56;;;;;;;;;;;;;;;12.73;100.00;100820.00;4943875;28;19923;-87
2023/04/07 11:45:22;;;;;;;;;;;;;;;12.70;100.00;100827.41;4949901;28;19924;-87
2023/04/07 11:47:49;;;;;;;;;;;;;;;12.67;100.00;100827.72;4938285;28;20259;-87
2023/04/07 11:50:15;;;;;;;;;;;;;;;12.74;100.00;100823.50;4929276;28;19926;-87
2023/04/07 11:52:45;;;;;;;;;;;;;;;12.80;100.00;100820.25;4939368;28;19915;-87
2023/04/07 11:55:20;;;;;;;;;;;;;;;12.77;100.00;100815.25;4930631;29;19926;-85
2023/04/07 11:57:46;;;;;;;;;;;;;;;12.65;100.00;100819.91;4948070;28;19925;-87
2023/04/07 12:00:13;;;;;;;;;;;;;;;12.60;100.00;100820.34;4942112;28;19927;-88
2023/04/07 12:02:38;;;;;;;;;;;;;;;12.74;100.00;100816.34;4929105;28;19923;-86
2023/04/07 12:05:04;;;;;;;;;;;;;;;12.90;100.00;100817.50;4943688;28;20291;-86
2023/04/07 12:07:30;;;;;;;;;;;;;;;12.89;100.00;100821.16;4929052;29;20016;-79
2023/04/07 12:10:00;;;;;;;;;;;;;;;12.87;100.00;100815.16;4938113;29;20379;-79
2023/04/07 12:12:31;;;;;;;;;;;;;;;12.98;100.00;100811.47;4915956;29;19918;-86
2023/04/07 12:14:57;;;;;;;;;;;;;;;13.12;95.41;100810.91;4937342;28;19940;-85
2023/04/07 12:17:24;;;;;;;;;;;;;;;13.20;91.27;100802.22;4952578;28;20405;-88
2023/04/07 12:19:50;;;;;;;;;;;;;;;13.23;87.06;100803.72;4933191;28;19919;-87
2023/04/07 12:22:15;;;;;;;;;;;;;;;13.35;87.23;100805.16;4944596;28;19934;-89
2023/04/07 12:24:41;;;;;;;;;;;;;;;13.33;79.42;100801.81;4915929;29;19926;-87
2023/04/07 12:27:07;;;;;;;;;;;;;;;13.29;78.39;100803.09;4915700;29;19925;-85
2023/04/07 12:29:33;;;;;;;;;;;;;;;13.37;81.05;100805.84;4930830;28;20418;-86
2023/04/07 12:31:59;;;;;;;;;;;;;;;13.43;83.31;100801.72;4939585;29;20388;-87
2023/04/07 12:34:26;;;;;;;;;;;;;;;13.41;84.73;100795.72;4931549;29;19926;-88
2023/04/07 12:36:52;;;;;;;;;;;;;;;13.48;84.84;100798.59;4915234;29;20395;-87
2023/04/07 12:39:17;;;;;;;;;;;;;;;13.58;89.68;100799.38;4918157;29;19926;-87
2023/04/07 12:41:44;;;;;;;;;;;;;;;13.55;83.33;100785.56;4920693;29;19923;-87
2023/04/07 12:44:10;;;;;;;;;;;;;;;13.47;83.84;100804.91;4948777;28;20017;-86
2023/04/07 12:46:36;;;;;;;;;;;;;;;13.33;79.39;100793.84;4915765;29;20009;-86
2023/04/07 12:49:02;;;;;;;;;;;;;;;13.27;87.37;100795.28;4944021;29;20043;-87
2023/04/07 12:51:27;;;;;;;;;;;;;;;13.17;79.88;100799.03;4912060;29;20017;-79
2023/04/07 12:53:53;;;;;;;;;;;;;;;13.21;83.53;100790.59;4930786;29;20363;-80
2023/04/07 12:56:21;;;;;;;;;;;;;;;13.33;86.12;100799.16;4940775;28;20018;-80
2023/04/07 12:58:47;;;;;;;;;;;;;;;13.46;79.91;100796.09;4933513;29;19970;-80
2023/04/07 13:01:13;;;;;;;;;;;;;;;13.49;77.94;100787.00;4928029;29;20320;-86
2023/04/07 13:03:39;;;;;;;;;;;;;;;13.38;77.32;100794.22;4964647;28;20379;-87
2023/04/07 13:06:04;;;;;;;;;;;;;;;13.37;77.94;100803.19;4911371;29;19937;-87
2023/04/07 13:08:30;;;;;;;;;;;;;;;13.40;75.94;100791.41;4944092;29;19966;-87
2023/04/07 13:10:56;;;;;;;;;;;;;;;13.44;77.70;100783.97;4954962;28;19927;-86
2023/04/07 13:13:22;;;;;;;;;;;;;;;13.44;75.90;100790.09;4945100;28;19918;-86
2023/04/07 13:15:48;;;;;;;;;;;;;;;13.24;76.11;100776.19;4947670;29;19962;-85
2023/04/07 13:18:13;;;;;;;;;;;;;;;13.14;76.26;100785.06;4939380;29;19988;-86
2023/04/07 13:20:39;;;;;;;;;;;;;;;13.37;83.08;100781.09;4929477;29;19930;-86
2023/04/07 13:23:05;;;;;;;;;;;;;;;13.48;77.22;100775.53;4930337;29;20056;-87
2023/04/07 13:25:30;;;;;;;;;;;;;;;13.54;75.59;100770.63;4926611;29;20260;-87
2023/04/07 13:27:56;;;;;;;;;;;;;;;13.54;73.44;100773.28;4945814;29;19923;-87
2023/04/07 13:30:21;;;;;;;;;;;;;;;13.55;76.50;100781.09;4928020;29;20018;-87
2023/04/07 13:32:50;;;;;;;;;;;;;;;13.63;82.22;100778.47;4933715;29;19918;-86
2023/04/07 13:35:16;;;;;;;;;;;;;;;13.74;73.42;100785.34;4926532;29;19922;-86
2023/04/07 13:37:43;;;;;;;;;;;;;;;13.61;73.47;100787.59;4928353;29;20357;-86
2023/04/07 13:40:10;;;;;;;;;;;;;;;13.50;78.13;100783.34;4929054;29;19922;-86